Time;durP1;ratioP1;P1;durP2;ratioP2;P2;SDS_P1;SDS_P2;PMS_P1;PMS_P2;Temp;Humidity;BMP_temperature;BMP_pressure;BME280_temperature;BME280_humidity;BME280_pressure;Samples;Min_cycle;Max_cycle;Signal;HPM_P1;HPM_P2
2021/03/31 00:02:17;;;;;;;4.28;3.00;;;18.20;56.30;;;;;;4980887;28;20523;-80
2021/03/31 00:04:43;;;;;;;3.45;2.45;;;18.20;56.20;;;;;;4997908;28;20168;-80
2021/03/31 00:07:10;;;;;;;3.97;2.95;;;18.20;56.10;;;;;;4998139;28;20194;-80
2021/03/31 00:09:36;;;;;;;3.47;3.05;;;18.20;56.10;;;;;;4980723;28;20163;-82
2021/03/31 00:12:02;;;;;;;4.82;3.42;;;18.20;56.20;;;;;;4980522;28;20625;-80
2021/03/31 00:14:28;;;;;;;5.10;2.85;;;18.20;56.10;;;;;;4998070;28;20156;-80
2021/03/31 00:16:54;;;;;;;7.28;3.00;;;18.20;56.20;;;;;;4997937;28;20227;-80
2021/03/31 00:19:19;;;;;;;5.50;3.08;;;18.10;56.20;;;;;;4980604;28;20156;-80
2021/03/31 00:21:45;;;;;;;4.63;2.80;;;18.10;56.20;;;;;;4997868;28;20239;-80
2021/03/31 00:24:12;;;;;;;4.95;2.90;;;18.10;56.30;;;;;;4979994;28;20164;-80
2021/03/31 00:26:46;;;;;;;3.72;3.10;;;18.10;56.30;;;;;;4997061;28;20192;-80
2021/03/31 00:29:12;;;;;;;4.07;2.78;;;18.10;56.20;;;;;;4997982;28;20159;-80
2021/03/31 00:31:39;;;;;;;4.30;3.13;;;18.10;56.20;;;;;;4997387;28;20179;-80
2021/03/31 00:34:04;;;;;;;4.65;2.97;;;18.10;56.20;;;;;;4997523;28;20171;-80
2021/03/31 00:36:30;;;;;;;3.50;3.08;;;18.20;56.20;;;;;;4964397;28;20160;-80
2021/03/31 00:38:56;;;;;;;3.65;2.50;;;18.10;56.20;;;;;;4997377;28;20188;-80
2021/03/31 00:41:21;;;;;;;4.78;2.90;;;18.10;56.20;;;;;;4979329;28;20235;-80
2021/03/31 00:43:47;;;;;;;4.25;3.22;;;18.10;56.30;;;;;;4978866;28;20164;-80
2021/03/31 00:46:12;;;;;;;4.75;3.10;;;18.10;56.30;;;;;;4996480;28;20180;-80
2021/03/31 00:48:38;;;;;;;3.10;2.80;;;18.10;56.30;;;;;;4979084;28;20160;-81
2021/03/31 00:51:04;;;;;;;5.68;2.90;;;18.10;56.20;;;;;;4979234;28;20160;-80
2021/03/31 00:53:38;;;;;;;4.75;2.70;;;18.10;56.30;;;;;;4979445;28;20156;-80
2021/03/31 00:56:04;;;;;;;4.47;3.25;;;18.10;56.30;;;;;;4996502;28;20156;-80
2021/03/31 00:58:30;;;;;;;3.55;2.60;;;18.10;56.30;;;;;;4979076;28;20157;-80
2021/03/31 01:00:55;;;;;;;3.78;2.67;;;18.10;56.20;;;;;;4978331;28;20163;-80
2021/03/31 01:03:22;;;;;;;4.60;3.05;;;18.10;56.20;;;;;;4996487;28;20220;-80
2021/03/31 01:05:49;;;;;;;3.88;2.70;;;18.10;56.30;;;;;;4996120;28;20160;-80
2021/03/31 01:08:15;;;;;;;4.07;3.30;;;18.10;56.30;;;;;;4996646;28;20180;-80
2021/03/31 01:10:48;;;;;;;3.65;2.83;;;18.10;56.20;;;;;;4996440;28;20180;-80
2021/03/31 01:13:27;;;;;;;4.20;3.00;;;18.10;56.30;;;;;;4979300;28;20572;-80
2021/03/31 01:16:11;;;;;;;3.80;3.10;;;18.10;56.40;;;;;;4996401;28;20164;-80
2021/03/31 01:18:54;;;;;;;3.40;2.95;;;18.10;56.40;;;;;;4996004;28;20152;-81
2021/03/31 01:21:46;;;;;;;4.00;2.95;;;18.10;56.30;;;;;;4978627;28;20168;-80
2021/03/31 01:24:50;;;;;;;3.38;2.75;;;18.00;56.40;;;;;;4994754;28;20247;-80
2021/03/31 01:27:37;;;;;;;4.03;2.75;;;18.10;56.20;;;;;;4996363;28;20234;-80
2021/03/31 01:30:06;;;;;;;4.38;2.95;;;18.10;56.30;;;;;;4978432;28;20519;-80
2021/03/31 01:33:03;;;;;;;3.00;2.70;;;18.10;56.40;;;;;;4995718;28;20156;-81
2021/03/31 01:35:29;;;;;;;4.32;2.97;;;18.10;56.40;;;;;;4981022;28;20152;-80
2021/03/31 01:37:56;;;;;;;5.28;2.90;;;18.10;56.30;;;;;;4962441;28;20762;-80
2021/03/31 01:40:23;;;;;;;3.10;2.70;;;18.10;56.40;;;;;;4978831;28;20156;-80
2021/03/31 01:43:01;;;;;;;4.00;2.90;;;18.00;56.40;;;;;;4962852;28;20160;-80
2021/03/31 01:45:32;;;;;;;3.45;2.47;;;18.00;56.40;;;;;;4978305;28;20156;-80
2021/03/31 01:48:09;;;;;;;4.47;3.10;;;18.10;56.40;;;;;;4979025;28;20611;-80
2021/03/31 01:50:46;;;;;;;4.45;3.35;;;18.10;56.30;;;;;;4978093;28;20227;-80
2021/03/31 01:53:21;;;;;;;5.55;3.30;;;18.10;56.30;;;;;;4979880;28;20163;-80
2021/03/31 01:55:54;;;;;;;4.68;3.03;;;18.10;56.30;;;;;;4978316;28;20175;-80
2021/03/31 01:58:19;;;;;;;3.38;2.70;;;18.10;56.30;;;;;;4996120;28;20168;-80
2021/03/31 02:00:45;;;;;;;5.25;3.30;;;18.10;56.30;;;;;;4978228;28;20160;-80
2021/03/31 02:03:11;;;;;;;4.85;2.85;;;18.10;56.40;;;;;;4961983;28;20255;-80
2021/03/31 02:05:37;;;;;;;4.20;2.97;;;18.10;56.20;;;;;;4978304;28;20183;-80
2021/03/31 02:08:05;;;;;;;5.57;3.00;;;18.00;56.20;;;;;;4962171;28;20172;-80
2021/03/31 02:10:30;;;;;;;3.53;2.80;;;18.10;56.30;;;;;;4977902;28;20187;-80
2021/03/31 02:12:58;;;;;;;3.85;2.95;;;18.00;56.40;;;;;;4979889;28;20160;-81
2021/03/31 02:15:29;;;;;;;3.67;3.10;;;18.10;56.40;;;;;;4981904;28;20156;-80
2021/03/31 02:17:55;;;;;;;3.83;2.72;;;18.00;56.30;;;;;;4981828;28;20160;-80
2021/03/31 02:20:22;;;;;;;4.80;2.90;;;18.00;56.40;;;;;;4982192;28;20153;-80
2021/03/31 02:22:48;;;;;;;4.55;3.00;;;18.00;56.30;;;;;;4981899;28;20539;-81
2021/03/31 02:25:15;;;;;;;3.55;2.80;;;18.00;56.40;;;;;;4982031;28;20212;-80
2021/03/31 02:27:40;;;;;;;4.15;2.72;;;18.00;56.40;;;;;;4981647;28;20295;-80
2021/03/31 02:30:10;;;;;;;4.47;3.30;;;18.00;56.40;;;;;;4981445;28;20300;-80
2021/03/31 02:32:36;;;;;;;3.65;2.92;;;18.00;56.40;;;;;;4981678;28;20193;-80
2021/03/31 02:35:03;;;;;;;3.22;2.80;;;18.00;56.40;;;;;;4981692;28;20180;-80
2021/03/31 02:37:28;;;;;;;4.78;3.00;;;18.00;56.40;;;;;;4981989;28;20166;-80
2021/03/31 02:39:54;;;;;;;5.07;2.80;;;18.00;56.40;;;;;;4981645;28;20243;-80
2021/03/31 02:42:21;;;;;;;3.28;2.97;;;18.00;56.40;;;;;;4982403;28;20527;-80
2021/03/31 02:44:50;;;;;;;4.80;3.10;;;18.00;56.40;;;;;;4999283;28;20281;-80
2021/03/31 02:47:17;;;;;;;7.65;2.72;;;18.00;56.40;;;;;;4999359;28;20255;-80
2021/03/31 02:49:45;;;;;;;3.72;3.00;;;18.00;56.40;;;;;;4998994;28;20315;-80
2021/03/31 02:52:12;;;;;;;3.83;2.88;;;18.00;57.10;;;;;;4981486;28;20301;-80
2021/03/31 02:54:38;;;;;;;4.18;2.90;;;18.00;56.40;;;;;;4981419;28;20156;-81
2021/03/31 02:57:08;;;;;;;4.38;2.80;;;18.00;56.40;;;;;;4981839;28;20527;-80
2021/03/31 02:59:34;;;;;;;4.38;3.00;;;18.00;56.40;;;;;;4981286;28;20156;-80
2021/03/31 03:01:59;;;;;;;6.13;3.03;;;18.00;56.40;;;;;;4981981;28;20519;-80
2021/03/31 03:04:26;;;;;;;4.40;2.88;;;18.00;56.30;;;;;;4981275;28;20612;-80
2021/03/31 03:06:53;;;;;;;3.33;2.88;;;18.00;56.40;;;;;;4981334;28;20677;-80
2021/03/31 03:09:18;;;;;;;5.00;2.90;;;18.00;56.40;;;;;;4981636;28;20634;-80
2021/03/31 03:11:44;;;;;;;3.85;2.90;;;18.00;56.50;;;;;;4981688;28;20160;-80
2021/03/31 03:14:10;;;;;;;3.22;2.63;;;18.00;56.50;;;;;;4981191;28;20163;-81
2021/03/31 03:16:35;;;;;;;3.90;2.78;;;18.00;56.50;;;;;;4964876;28;20172;-80
2021/03/31 03:19:01;;;;;;;3.28;2.80;;;18.00;56.40;;;;;;4998571;28;20239;-80
2021/03/31 03:21:27;;;;;;;3.72;3.20;;;18.00;56.40;;;;;;4998882;28;20227;-80
2021/03/31 03:23:54;;;;;;;5.65;2.75;;;18.00;56.40;;;;;;4980934;28;20155;-80
2021/03/31 03:26:21;;;;;;;3.15;2.72;;;18.00;56.50;;;;;;4980888;28;20196;-80
2021/03/31 03:28:47;;;;;;;3.15;2.67;;;18.00;56.30;;;;;;4981282;28;20163;-80
2021/03/31 03:31:14;;;;;;;4.80;3.25;;;18.00;56.40;;;;;;4998327;28;20160;-80
2021/03/31 03:33:40;;;;;;;4.80;3.20;;;17.90;57.10;;;;;;4981241;28;20164;-80
2021/03/31 03:36:06;;;;;;;3.15;2.58;;;18.00;56.50;;;;;;4981310;28;20553;-80
2021/03/31 03:38:33;;;;;;;4.72;3.00;;;17.90;56.50;;;;;;4997670;28;20168;-80
2021/03/31 03:41:06;;;;;;;4.40;2.88;;;17.90;56.40;;;;;;4981000;28;20532;-80
2021/03/31 03:43:32;;;;;;;3.63;2.80;;;18.00;56.50;;;;;;4997847;28;20166;-80
2021/03/31 03:45:59;;;;;;;3.67;2.75;;;17.90;56.50;;;;;;4980615;28;20192;-80
2021/03/31 03:48:26;;;;;;;3.40;2.90;;;17.90;56.50;;;;;;4980692;28;20599;-80
2021/03/31 03:50:52;;;;;;;3.95;2.70;;;17.90;56.40;;;;;;4980212;28;20280;-80
2021/03/31 03:53:18;;;;;;;4.28;3.03;;;17.90;56.50;;;;;;4997815;28;20512;-80
2021/03/31 03:55:45;;;;;;;3.97;2.83;;;17.90;56.60;;;;;;4980837;28;20236;-80
2021/03/31 03:58:19;;;;;;;4.22;2.80;;;17.90;56.60;;;;;;4980303;28;20156;-80
2021/03/31 04:00:46;;;;;;;3.10;2.80;;;17.90;56.60;;;;;;4979971;28;20186;-80
2021/03/31 04:03:12;;;;;;;5.28;3.00;;;17.90;56.60;;;;;;4979579;28;20160;-80
2021/03/31 04:05:39;;;;;;;3.60;2.80;;;18.00;56.30;;;;;;4997289;28;20164;-80
2021/03/31 04:08:06;;;;;;;4.55;3.05;;;18.00;56.20;;;;;;4979547;28;20168;-80
2021/03/31 04:10:33;;;;;;;3.22;2.70;;;18.00;56.00;;;;;;4996594;28;20627;-80
2021/03/31 04:12:59;;;;;;;4.70;2.78;;;18.00;56.10;;;;;;4979186;28;20468;-80
2021/03/31 04:15:26;;;;;;;3.10;2.80;;;18.00;56.00;;;;;;4997019;28;20251;-80
2021/03/31 04:17:53;;;;;;;3.92;2.60;;;18.00;56.10;;;;;;4979338;28;20224;-80
2021/03/31 04:20:23;;;;;;;3.53;2.60;;;18.00;56.10;;;;;;4979776;28;20164;-80
2021/03/31 04:22:50;;;;;;;3.17;2.67;;;18.00;56.00;;;;;;4996965;28;20152;-80
2021/03/31 04:25:19;;;;;;;4.10;2.60;;;18.00;56.00;;;;;;4963241;28;20304;-80
2021/03/31 04:27:48;;;;;;;3.05;2.75;;;18.00;56.00;;;;;;4996922;28;20647;-80
2021/03/31 04:30:26;;;;;;;3.53;2.85;;;18.10;55.80;;;;;;4978911;28;20148;-80
2021/03/31 04:32:52;;;;;;;3.42;2.50;;;18.10;55.80;;;;;;4978876;28;20638;-80
2021/03/31 04:35:20;;;;;;;3.65;2.80;;;18.00;56.00;;;;;;4978749;28;20167;-80
2021/03/31 04:37:46;;;;;;;3.15;2.40;;;18.00;56.10;;;;;;4962026;28;20594;-79
2021/03/31 04:40:15;;;;;;;3.55;2.83;;;18.00;56.00;;;;;;4979230;28;20160;-80
2021/03/31 04:42:42;;;;;;;3.22;2.63;;;18.10;55.80;;;;;;4996149;28;20157;-80
2021/03/31 04:45:10;;;;;;;4.70;2.75;;;18.00;56.10;;;;;;4996005;28;20152;-79
2021/03/31 04:47:37;;;;;;;4.10;2.67;;;18.00;56.00;;;;;;4978935;28;20199;-79
2021/03/31 04:50:24;;;;;;;4.43;2.70;;;18.00;55.90;;;;;;4996167;28;20215;-80
2021/03/31 04:52:49;;;;;;;3.58;2.50;;;18.00;56.00;;;;;;4976612;28;20207;-80
2021/03/31 04:55:15;;;;;;;3.40;2.80;;;18.00;56.00;;;;;;4977027;28;20175;-80
2021/03/31 04:57:41;;;;;;;3.00;2.63;;;18.10;55.80;;;;;;4959311;28;20161;-80
2021/03/31 05:00:07;;;;;;;3.35;2.50;;;18.00;55.90;;;;;;4977564;28;20643;-80
2021/03/31 05:02:34;;;;;;;5.30;2.72;;;18.10;55.80;;;;;;4977747;28;20161;-80
2021/03/31 05:05:01;;;;;;;4.38;2.90;;;18.00;55.70;;;;;;4960655;28;20169;-79
2021/03/31 05:07:26;;;;;;;3.58;2.75;;;18.10;55.70;;;;;;4977793;28;20681;-80
2021/03/31 05:10:01;;;;;;;3.10;2.80;;;18.00;55.90;;;;;;4984103;28;20232;-80
2021/03/31 05:12:27;;;;;;;4.47;2.60;;;18.00;55.90;;;;;;4998812;28;20627;-80
2021/03/31 05:14:53;;;;;;;3.85;2.50;;;18.00;56.00;;;;;;4998148;28;20276;-80
2021/03/31 05:17:19;;;;;;;3.38;2.88;;;18.00;56.10;;;;;;4997562;28;20665;-80
2021/03/31 05:19:45;;;;;;;2.88;2.50;;;18.00;56.00;;;;;;4964290;28;20164;-80
2021/03/31 05:22:11;;;;;;;4.47;2.58;;;18.00;56.00;;;;;;4997553;28;20157;-80
2021/03/31 05:24:38;;;;;;;3.33;2.80;;;18.00;55.80;;;;;;4997424;28;20160;-81
2021/03/31 05:27:05;;;;;;;3.22;2.58;;;18.00;55.90;;;;;;4997893;28;20188;-80
2021/03/31 05:29:34;;;;;;;3.58;2.72;;;18.00;56.00;;;;;;4981306;28;20164;-80
2021/03/31 05:32:00;;;;;;;3.53;2.85;;;18.00;55.90;;;;;;4981456;28;20156;-80
2021/03/31 05:34:27;;;;;;;2.78;2.42;;;18.00;55.90;;;;;;4997506;28;20156;-80
2021/03/31 05:36:52;;;;;;;3.20;2.58;;;18.00;56.00;;;;;;4999454;28;20199;-80
2021/03/31 05:39:19;;;;;;;3.42;2.55;;;18.00;56.00;;;;;;5001329;28;20152;-80
2021/03/31 05:41:47;;;;;;;3.63;2.80;;;18.00;55.80;;;;;;5001550;28;20156;-80
2021/03/31 05:44:22;;;;;;;3.35;2.60;;;18.00;56.00;;;;;;5002128;28;20176;-80
2021/03/31 05:46:52;;;;;;;3.10;2.67;;;18.00;56.10;;;;;;4985133;28;20566;-80
2021/03/31 05:49:18;;;;;;;3.08;2.65;;;18.00;55.90;;;;;;4995447;28;20226;-80
2021/03/31 05:51:52;;;;;;;3.85;2.47;;;18.00;55.80;;;;;;4992080;28;20152;-80
2021/03/31 05:54:19;;;;;;;2.85;2.22;;;18.00;55.80;;;;;;5008207;28;20143;-80
2021/03/31 05:56:46;;;;;;;3.03;2.50;;;18.00;55.70;;;;;;5007439;28;20241;-80
2021/03/31 05:59:13;;;;;;;3.08;2.63;;;18.00;55.80;;;;;;5008347;28;20163;-79
2021/03/31 06:01:47;;;;;;;2.45;2.25;;;18.00;55.80;;;;;;4992503;28;20167;-79
2021/03/31 06:04:16;;;;;;;3.17;2.50;;;18.00;55.90;;;;;;5009888;28;20181;-79
2021/03/31 06:06:50;;;;;;;3.70;2.30;;;18.00;56.00;;;;;;5027530;28;20199;-80
2021/03/31 06:09:22;;;;;;;3.15;2.20;;;18.00;55.80;;;;;;5008082;28;20151;-79
2021/03/31 06:11:55;;;;;;;3.80;2.63;;;18.00;55.60;;;;;;5025767;28;20187;-79
2021/03/31 06:14:28;;;;;;;4.03;2.35;;;18.10;55.70;;;;;;4997704;28;20177;-79
2021/03/31 06:17:05;;;;;;;4.25;2.47;;;18.00;55.60;;;;;;4988142;28;20167;-79
2021/03/31 06:19:33;;;;;;;2.80;2.55;;;18.00;55.60;;;;;;4968541;28;20512;-79
2021/03/31 06:25:22;;;;;;;2.40;2.20;;;18.10;55.70;;;;;;4970405;28;20635;-80
2021/03/31 06:27:59;;;;;;;2.72;2.42;;;18.00;55.70;;;;;;4970428;28;20231;-79
2021/03/31 06:30:27;;;;;;;2.45;2.13;;;18.00;55.60;;;;;;4980445;28;20176;-79
2021/03/31 06:32:55;;;;;;;2.83;2.53;;;18.10;55.40;;;;;;5004932;28;20172;-80
2021/03/31 06:35:24;;;;;;;2.67;2.22;;;18.10;55.50;;;;;;4986854;28;20173;-80
2021/03/31 06:37:51;;;;;;;2.92;2.50;;;18.10;55.50;;;;;;5002279;28;20156;-79
2021/03/31 06:40:41;;;;;;;2.55;2.22;;;18.00;55.40;;;;;;4985001;28;20167;-79
2021/03/31 06:43:31;;;;;;;3.70;1.98;;;18.00;55.40;;;;;;5002476;28;20162;-79
2021/03/31 06:46:21;;;;;;;2.97;2.67;;;18.00;55.40;;;;;;4984156;28;20206;-79
2021/03/31 06:48:49;;;;;;;3.67;2.42;;;18.10;55.30;;;;;;4983868;28;20160;-79
2021/03/31 06:51:47;;;;;;;2.55;2.33;;;18.10;55.40;;;;;;4966165;28;20584;-79
2021/03/31 06:54:21;;;;;;;2.63;2.17;;;18.10;55.10;;;;;;4965308;28;20183;-79
2021/03/31 06:56:55;;;;;;;2.88;2.20;;;18.10;55.50;;;;;;4967998;28;20181;-80
2021/03/31 06:59:36;;;;;;;2.50;2.08;;;18.10;55.10;;;;;;4968183;28;20164;-78
2021/03/31 07:02:03;;;;;;;2.70;2.20;;;18.10;54.90;;;;;;4966576;28;20532;-79
2021/03/31 07:04:29;;;;;;;2.95;2.30;;;18.10;55.50;;;;;;4967848;28;20168;-79
2021/03/31 07:07:07;;;;;;;2.30;2.10;;;18.10;55.60;;;;;;4969053;28;20196;-79
2021/03/31 07:09:38;;;;;;;3.13;1.95;;;18.00;55.50;;;;;;4955347;28;20244;-80
2021/03/31 07:12:37;;;;;;;2.60;2.30;;;18.10;56.10;;;;;;5005729;28;20160;-79
2021/03/31 07:15:13;;;;;;;3.20;1.98;;;18.10;55.30;;;;;;5001071;28;20176;-79
2021/03/31 07:17:54;;;;;;;3.08;2.20;;;18.10;55.10;;;;;;5006423;28;20160;-79
2021/03/31 07:20:52;;;;;;;2.05;1.77;;;18.20;55.20;;;;;;5006704;28;20164;-79
2021/03/31 07:23:47;;;;;;;;;;;;;;;;;;;;;
2021/03/31 07:26:21;;;;;;;2.45;2.00;;;18.20;55.00;;;;;;4953764;29;20301;-81
2021/03/31 07:28:49;;;;;;;2.75;2.10;;;18.20;55.00;;;;;;4935679;29;20550;-77
2021/03/31 07:31:20;;;;;;;3.47;2.28;;;18.10;55.00;;;;;;4965777;28;20165;-78
2021/03/31 07:33:51;;;;;;;2.58;2.13;;;18.20;55.10;;;;;;4992396;28;20177;-78
2021/03/31 07:36:17;;;;;;;2.92;2.13;;;18.20;55.20;;;;;;4970369;28;20325;-79
2021/03/31 07:38:44;;;;;;;2.55;2.15;;;18.20;55.00;;;;;;4987696;28;20165;-79
2021/03/31 07:41:18;;;;;;;2.95;1.85;;;18.10;55.00;;;;;;4988983;28;20185;-78
2021/03/31 07:43:45;;;;;;;2.72;2.00;;;18.10;55.00;;;;;;4969014;28;20169;-79
2021/03/31 07:46:16;;;;;;;2.33;2.13;;;18.20;55.00;;;;;;4969506;28;20687;-79
2021/03/31 07:48:42;;;;;;;2.30;2.10;;;18.20;55.00;;;;;;4969240;28;20164;-80
2021/03/31 07:51:25;;;;;;;2.75;2.25;;;18.10;55.00;;;;;;4971542;28;20164;-79
2021/03/31 07:54:06;;;;;;;2.30;2.00;;;18.10;54.90;;;;;;5006073;28;20159;-78
2021/03/31 07:56:45;;;;;;;2.58;2.10;;;18.10;55.10;;;;;;4990022;28;20160;-79
2021/03/31 07:59:13;;;;;;;3.72;2.30;;;18.10;55.30;;;;;;5005737;28;20199;-79
2021/03/31 08:01:44;;;;;;;2.85;2.00;;;18.10;55.30;;;;;;4987635;28;20176;-78
2021/03/31 08:04:11;;;;;;;3.63;2.10;;;18.10;55.20;;;;;;4988240;28;20202;-79
2021/03/31 08:06:39;;;;;;;3.80;2.30;;;18.10;55.10;;;;;;4971866;28;20196;-78
2021/03/31 08:09:08;;;;;;;3.60;2.08;;;18.10;55.30;;;;;;4987875;28;20171;-78
2021/03/31 08:11:46;;;;;;;3.25;2.03;;;18.10;55.30;;;;;;5002711;28;20168;-81
2021/03/31 08:14:36;;;;;;;3.22;2.08;;;18.10;55.30;;;;;;4987528;28;20175;-79
2021/03/31 08:17:04;;;;;;;3.55;2.05;;;18.10;55.30;;;;;;4988038;28;20164;-80
2021/03/31 08:19:32;;;;;;;6.18;2.30;;;18.10;55.20;;;;;;4970527;28;20195;-79
2021/03/31 08:22:16;;;;;;;6.15;2.30;;;18.10;55.30;;;;;;4967864;28;20168;-79
2021/03/31 08:24:46;;;;;;;6.18;2.45;;;18.20;55.10;;;;;;4988152;28;20559;-78
2021/03/31 08:27:12;;;;;;;7.75;2.40;;;18.20;55.30;;;;;;5003763;28;20195;-79
2021/03/31 08:29:38;;;;;;;8.88;2.10;;;18.10;55.30;;;;;;5003686;28;20172;-79
2021/03/31 08:32:07;;;;;;;7.55;2.22;;;18.10;55.30;;;;;;5005080;28;20168;-79
2021/03/31 08:34:33;;;;;;;9.27;2.50;;;18.10;55.40;;;;;;5002010;28;20182;-78
2021/03/31 08:37:00;;;;;;;4.68;1.90;;;18.20;55.30;;;;;;5003979;28;20179;-77
2021/03/31 08:39:26;;;;;;;8.02;2.15;;;18.10;55.40;;;;;;5004928;28;20254;-80
2021/03/31 08:41:57;;;;;;;8.73;2.10;;;18.10;55.40;;;;;;4986952;28;20160;-79
2021/03/31 08:44:41;;;;;;;7.18;2.40;;;18.20;55.30;;;;;;4987552;28;20190;-80
2021/03/31 08:47:18;;;;;;;8.38;2.15;;;18.20;55.50;;;;;;4972292;28;20214;-79
2021/03/31 08:49:46;;;;;;;9.65;2.25;;;18.20;55.30;;;;;;4987855;28;20212;-78
2021/03/31 08:52:14;;;;;;;5.53;2.38;;;18.20;55.40;;;;;;4986554;28;20175;-80
2021/03/31 08:54:44;;;;;;;16.58;2.67;;;18.20;55.30;;;;;;4970901;28;20176;-80
2021/03/31 08:57:18;;;;;;;9.50;2.58;;;18.20;55.20;;;;;;4988066;28;20156;-80
2021/03/31 08:59:52;;;;;;;11.48;2.40;;;18.20;55.20;;;;;;5004073;28;20242;-79
2021/03/31 09:02:32;;;;;;;13.65;2.70;;;18.30;55.30;;;;;;4985942;28;20163;-80
2021/03/31 09:04:58;;;;;;;18.00;2.72;;;18.20;55.40;;;;;;4985634;28;20161;-78
2021/03/31 09:07:24;;;;;;;15.48;2.95;;;18.20;55.30;;;;;;5002690;28;20202;-80
2021/03/31 09:09:52;;;;;;;17.98;2.40;;;18.20;55.20;;;;;;4970675;28;20168;-80
2021/03/31 09:12:38;;;;;;;26.73;3.25;;;18.20;55.30;;;;;;4986814;28;20500;-80
2021/03/31 09:15:06;;;;;;;28.33;2.97;;;18.20;55.40;;;;;;5002909;28;20647;-80
2021/03/31 09:17:33;;;;;;;22.88;3.55;;;18.20;55.50;;;;;;5003272;28;20235;-80
2021/03/31 09:20:01;;;;;;;38.05;3.65;;;18.20;55.50;;;;;;4986076;28;20184;-80
2021/03/31 09:22:29;;;;;;;40.65;3.83;;;18.20;55.60;;;;;;5002491;28;20164;-80
2021/03/31 09:25:15;;;;;;;36.10;3.78;;;18.20;55.70;;;;;;5003310;28;20160;-80
2021/03/31 09:27:41;;;;;;;33.25;3.97;;;18.20;55.60;;;;;;5000243;28;20198;-80
2021/03/31 09:30:27;;;;;;;23.25;3.58;;;18.30;55.50;;;;;;5003901;28;20235;-79
2021/03/31 09:32:59;;;;;;;36.88;4.22;;;18.30;55.40;;;;;;5001460;28;20164;-80
2021/03/31 09:35:25;;;;;;;31.92;4.35;;;18.20;55.60;;;;;;4972598;28;20556;-80
2021/03/31 09:37:52;;;;;;;40.88;4.38;;;18.20;55.50;;;;;;5005021;28;20165;-81
2021/03/31 09:40:20;;;;;;;32.35;4.07;;;18.20;55.50;;;;;;5001434;28;20168;-79
2021/03/31 09:42:46;;;;;;;35.40;4.32;;;18.30;55.40;;;;;;4977723;28;20251;-79
2021/03/31 09:45:13;;;;;;;50.40;4.68;;;18.30;55.40;;;;;;4995744;28;20599;-79
2021/03/31 09:47:38;;;;;;;32.20;4.47;;;18.30;55.50;;;;;;4995224;28;20191;-80
2021/03/31 09:50:11;;;;;;;36.63;4.05;;;18.30;55.30;;;;;;4977558;28;20223;-78
2021/03/31 09:52:37;;;;;;;24.63;3.20;;;18.30;55.30;;;;;;4977096;28;20543;-77
2021/03/31 09:55:11;;;;;;;19.63;3.30;;;18.20;55.40;;;;;;4978505;28;20153;-77
2021/03/31 09:57:38;;;;;;;17.10;2.92;;;18.30;55.30;;;;;;4980173;28;20172;-78
2021/03/31 10:00:08;;;;;;;21.38;3.88;;;18.20;55.40;;;;;;4976775;28;20291;-78
2021/03/31 10:02:34;;;;;;;15.85;3.22;;;18.30;55.30;;;;;;4993475;28;20165;-78
2021/03/31 10:05:04;;;;;;;20.48;2.85;;;18.20;55.40;;;;;;4975983;28;20655;-77
2021/03/31 10:07:29;;;;;;;17.83;3.35;;;18.20;55.50;;;;;;4960183;28;20192;-78
2021/03/31 10:09:55;;;;;;;20.88;3.22;;;18.20;55.40;;;;;;4993218;28;20164;-77
2021/03/31 10:12:32;;;;;;;17.48;3.17;;;18.20;55.50;;;;;;4976521;28;20168;-78
2021/03/31 10:15:00;;;;;;;16.27;2.70;;;18.20;55.30;;;;;;4977460;28;20167;-78
2021/03/31 10:17:29;;;;;;;14.45;2.92;;;18.20;55.30;;;;;;4960578;28;20182;-78
2021/03/31 10:20:11;;;;;;;15.38;3.03;;;18.20;55.40;;;;;;4994022;28;20616;-78
2021/03/31 10:22:37;;;;;;;13.25;2.38;;;18.20;55.50;;;;;;4991936;28;20679;-78
2021/03/31 10:25:06;;;;;;;14.38;2.67;;;18.20;55.40;;;;;;4960232;28;20528;-78
2021/03/31 10:27:43;;;;;;;11.75;2.58;;;18.20;55.30;;;;;;4975713;28;20200;-78
2021/03/31 10:30:29;;;;;;;13.63;2.85;;;18.20;55.30;;;;;;4960388;28;20207;-78
2021/03/31 10:32:56;;;;;;;14.27;2.47;;;18.20;55.30;;;;;;4993245;28;20378;-78
2021/03/31 10:35:52;;;;;;;14.55;3.15;;;18.20;55.30;;;;;;4963263;28;20168;-78
2021/03/31 10:38:54;;;;;;;12.35;2.30;;;18.20;55.40;;;;;;4967045;28;20160;-78
2021/03/31 10:46:46;;;;;;;13.23;2.55;;;18.20;55.40;;;;;;4979602;28;20175;-80
2021/03/31 10:50:01;;;;;;;8.18;2.10;;;18.20;55.20;;;;;;4989681;28;20335;-80
2021/03/31 10:52:35;;;;;;;14.52;2.33;;;18.20;55.20;;;;;;5006265;28;20163;-78
2021/03/31 10:55:02;;;;;;;13.77;2.60;;;18.30;55.10;;;;;;4989430;28;20196;-80
2021/03/31 10:57:36;;;;;;;8.68;2.20;;;18.30;55.10;;;;;;5007745;28;20686;-80
2021/03/31 11:00:04;;;;;;;8.82;2.35;;;18.30;55.10;;;;;;4989984;28;20219;-80
2021/03/31 11:02:30;;;;;;;13.35;3.00;;;18.30;55.20;;;;;;4989393;28;20690;-81
2021/03/31 11:04:55;;;;;;;11.65;2.60;;;18.30;55.10;;;;;;4988184;28;20298;-79
2021/03/31 11:07:21;;;;;;;8.93;2.22;;;18.30;55.20;;;;;;4987250;28;20678;-79
2021/03/31 11:09:49;;;;;;;8.82;2.20;;;18.30;55.00;;;;;;5005254;28;20164;-79
2021/03/31 11:12:15;;;;;;;9.38;2.55;;;18.30;55.00;;;;;;4982392;28;20251;-79
2021/03/31 11:14:42;;;;;;;7.90;2.50;;;18.30;54.90;;;;;;4999532;28;20187;-80
2021/03/31 11:27:54;;;;;;;15.02;2.42;;;18.30;54.80;;;;;;4907475;29;20210;-78
2021/03/31 11:30:22;;;;;;;7.75;2.40;;;18.30;54.70;;;;;;4907020;29;20190;-79
2021/03/31 11:32:48;;;;;;;8.93;2.30;;;18.30;54.60;;;;;;4921502;29;20689;-79
2021/03/31 11:35:15;;;;;;;15.73;2.72;;;18.30;54.60;;;;;;4921974;29;20229;-79
2021/03/31 11:37:43;;;;;;;10.95;2.90;;;18.30;54.70;;;;;;4923842;29;20193;-80
2021/03/31 11:40:09;;;;;;;11.48;2.22;;;18.30;54.70;;;;;;4909520;29;20190;-79
2021/03/31 11:42:40;;;;;;;12.63;2.35;;;18.30;54.70;;;;;;4909588;29;20678;-80
2021/03/31 11:45:07;;;;;;;9.52;2.20;;;18.30;54.60;;;;;;4894946;29;20701;-79
2021/03/31 11:47:38;;;;;;;8.82;1.90;;;18.30;54.40;;;;;;4924378;29;20207;-80
2021/03/31 11:50:06;;;;;;;8.38;1.92;;;18.40;54.40;;;;;;4908242;29;20214;-79
2021/03/31 11:52:35;;;;;;;5.72;1.80;;;18.30;54.50;;;;;;4924912;29;20167;-78
2021/03/31 11:55:01;;;;;;;6.85;2.13;;;18.30;54.60;;;;;;4908467;29;20270;-78
2021/03/31 11:57:27;;;;;;;9.15;2.22;;;18.30;54.70;;;;;;4975638;28;20706;-78
2021/03/31 11:59:53;;;;;;;7.38;2.47;;;18.30;54.60;;;;;;5003927;28;20207;-78
2021/03/31 12:02:19;;;;;;;9.13;2.08;;;18.30;54.60;;;;;;4985615;28;20743;-77
2021/03/31 12:04:46;;;;;;;8.27;2.10;;;18.30;54.60;;;;;;5003685;28;20202;-77
2021/03/31 12:07:14;;;;;;;6.15;1.90;;;18.30;54.50;;;;;;5004383;28;20274;-78
2021/03/31 12:09:41;;;;;;;4.85;1.80;;;18.30;54.50;;;;;;4987772;28;20164;-79
2021/03/31 12:12:09;;;;;;;9.07;2.10;;;18.20;54.50;;;;;;5005806;28;20187;-79
2021/03/31 12:14:35;;;;;;;8.32;2.25;;;18.30;54.60;;;;;;4985993;28;20165;-78
2021/03/31 12:17:04;;;;;;;4.53;1.88;;;18.30;54.60;;;;;;5004688;28;20168;-79
2021/03/31 12:19:30;;;;;;;4.88;1.90;;;18.30;54.30;;;;;;4987650;28;20195;-79
2021/03/31 12:21:57;;;;;;;9.43;1.92;;;18.30;54.50;;;;;;5005339;28;20192;-77
2021/03/31 12:24:26;;;;;;;4.85;2.10;;;18.30;54.40;;;;;;4971104;28;20172;-77
2021/03/31 12:27:07;;;;;;;4.82;2.08;;;18.30;55.20;;;;;;5005731;28;20196;-78
2021/03/31 12:29:35;;;;;;;4.88;1.83;;;18.30;54.50;;;;;;4987538;28;20508;-79
2021/03/31 12:32:02;;;;;;;8.75;2.13;;;18.30;54.60;;;;;;4972870;28;20164;-78
2021/03/31 12:34:29;;;;;;;6.90;1.90;;;18.30;54.60;;;;;;5005508;28;20152;-77
2021/03/31 12:36:56;;;;;;;6.47;2.08;;;18.30;54.60;;;;;;4988293;28;20251;-77
2021/03/31 12:39:22;;;;;;;7.75;1.98;;;18.20;54.60;;;;;;5004972;28;20192;-78
2021/03/31 12:41:49;;;;;;;7.00;1.88;;;18.30;54.50;;;;;;5004259;28;20172;-78
2021/03/31 12:44:15;;;;;;;4.57;1.77;;;18.20;54.50;;;;;;5003246;28;20196;-79
2021/03/31 12:46:42;;;;;;;4.00;1.80;;;18.20;54.60;;;;;;5004141;28;20246;-78
2021/03/31 12:49:08;;;;;;;5.30;1.88;;;18.30;54.50;;;;;;4986674;28;20737;-78
2021/03/31 12:51:36;;;;;;;5.65;1.65;;;18.30;54.40;;;;;;5004129;28;20191;-79
2021/03/31 12:54:08;;;;;;;3.97;2.05;;;18.30;54.50;;;;;;4989215;28;20160;-79
2021/03/31 12:56:34;;;;;;;7.63;2.10;;;18.30;54.40;;;;;;4989419;28;20591;-80
2021/03/31 12:59:02;;;;;;;7.53;2.40;;;18.30;54.40;;;;;;5005493;28;20239;-78
2021/03/31 13:01:28;;;;;;;3.72;1.70;;;18.30;54.40;;;;;;5005723;28;20168;-78
2021/03/31 13:03:56;;;;;;;6.22;1.83;;;18.30;54.40;;;;;;4986698;28;20214;-79
2021/03/31 13:06:26;;;;;;;4.32;1.85;;;18.30;54.60;;;;;;5004305;28;20195;-78
2021/03/31 13:08:54;;;;;;;3.45;1.50;;;18.30;54.50;;;;;;5004389;28;20284;-77
2021/03/31 13:11:22;;;;;;;7.30;2.15;;;18.30;54.50;;;;;;4988015;28;20608;-78
2021/03/31 13:27:29;;;;;;;4.25;2.00;;;18.30;54.20;;;;;;4964052;28;20251;-78
2021/03/31 13:30:22;;;;;;;5.00;1.83;;;18.30;54.40;;;;;;4960359;29;20181;-78
2021/03/31 13:40:20;;;;;;;4.10;1.58;;;18.30;54.30;;;;;;4964251;29;20166;-79
2021/03/31 13:42:46;;;;;;;4.35;1.60;;;18.30;54.30;;;;;;4933297;29;20354;-80